Time;durP1;ratioP1;P1;durP2;ratioP2;P2;SDS_P1;SDS_P2;PMS_P1;PMS_P2;Temp;Humidity;BMP_temperature;BMP_pressure;BME280_temperature;BME280_humidity;BME280_pressure;Samples;Min_cycle;Max_cycle;Signal;HPM_P1;HPM_P2
2022/09/07 00:01:25;;;;;;;2.55;1.90;;;20.40;53.30;;;;;;4978416;28;20054;-75
2022/09/07 00:03:54;;;;;;;3.03;1.80;;;20.40;53.40;;;;;;4972533;28;20046;-75
2022/09/07 00:06:20;;;;;;;2.85;1.98;;;20.30;53.60;;;;;;4968933;28;20121;-75
2022/09/07 00:08:45;;;;;;;1.60;1.45;;;20.30;53.70;;;;;;4975737;28;20077;-75
2022/09/07 00:11:13;;;;;;;4.10;1.73;;;20.30;53.70;;;;;;4952755;28;20538;-77
2022/09/07 00:13:39;;;;;;;1.60;1.40;;;20.20;54.00;;;;;;4957996;28;20042;-76
2022/09/07 00:16:06;;;;;;;3.05;1.60;;;20.20;54.00;;;;;;4988172;28;21362;-76
2022/09/07 00:18:32;;;;;;;3.47;1.70;;;20.20;54.10;;;;;;4962084;28;20448;-76
2022/09/07 00:21:02;;;;;;;2.58;1.42;;;20.20;54.20;;;;;;4953973;28;20031;-76
2022/09/07 00:23:29;;;;;;;4.28;1.77;;;20.10;54.40;;;;;;4977853;28;20043;-76
2022/09/07 00:25:59;;;;;;;3.13;1.70;;;20.10;54.50;;;;;;4999468;28;20050;-77
2022/09/07 00:28:24;;;;;;;4.05;1.80;;;20.10;54.60;;;;;;4971114;28;20077;-76
2022/09/07 00:30:50;;;;;;;3.47;1.73;;;20.00;54.50;;;;;;4995140;28;20070;-76
2022/09/07 00:33:15;;;;;;;1.65;1.40;;;20.00;54.70;;;;;;4999962;28;20038;-75
2022/09/07 00:35:41;;;;;;;1.75;1.63;;;19.90;54.70;;;;;;4999388;28;20050;-76
2022/09/07 00:38:07;;;;;;;3.08;1.35;;;19.90;54.90;;;;;;4995383;28;20045;-76
2022/09/07 00:40:32;;;;;;;3.70;1.88;;;19.90;55.00;;;;;;4994420;28;20590;-76
2022/09/07 00:42:58;;;;;;;3.00;1.70;;;19.90;55.00;;;;;;4966171;28;20062;-76
2022/09/07 00:45:23;;;;;;;4.18;1.70;;;19.90;55.10;;;;;;4976717;28;20047;-76
2022/09/07 00:48:02;;;;;;;3.80;1.77;;;19.80;55.10;;;;;;4974232;28;20514;-76
2022/09/07 00:50:39;;;;;;;5.03;1.70;;;19.80;55.30;;;;;;4995260;28;20050;-76
2022/09/07 00:53:22;;;;;;;2.00;1.60;;;19.80;55.30;;;;;;4958385;28;20256;-76
2022/09/07 00:55:48;;;;;;;3.22;1.80;;;19.70;55.70;;;;;;4946092;28;20053;-76
2022/09/07 00:58:14;;;;;;;2.75;1.60;;;19.70;55.40;;;;;;4963964;28;20149;-77
2022/09/07 01:00:40;;;;;;;5.85;1.92;;;19.70;55.50;;;;;;4978239;28;20054;-76
2022/09/07 01:03:05;;;;;;;3.63;1.50;;;19.60;55.50;;;;;;4979554;28;20034;-76
2022/09/07 01:05:40;;;;;;;1.92;1.60;;;19.60;55.70;;;;;;4985345;28;20043;-76
2022/09/07 01:08:05;;;;;;;3.65;1.48;;;19.60;55.80;;;;;;4966348;28;20061;-77
2022/09/07 01:10:32;;;;;;;2.75;1.80;;;19.50;55.80;;;;;;4980532;28;20026;-76
2022/09/07 01:12:58;;;;;;;4.13;1.83;;;19.50;55.80;;;;;;5000420;28;20030;-76
2022/09/07 01:15:38;;;;;;;3.72;1.92;;;19.50;56.00;;;;;;5001304;28;20035;-76
2022/09/07 01:18:22;;;;;;;5.65;2.00;;;19.40;56.10;;;;;;4992902;28;20030;-77
2022/09/07 01:20:53;;;;;;;2.78;1.80;;;19.40;56.20;;;;;;5002516;28;20033;-76
2022/09/07 01:23:56;;;;;;;2.80;1.73;;;19.40;56.30;;;;;;4996617;28;20050;-77
2022/09/07 01:26:36;;;;;;;5.70;1.80;;;19.30;56.70;;;;;;4978953;28;20062;-76
2022/09/07 01:29:06;;;;;;;5.57;1.70;;;19.30;56.60;;;;;;4975470;28;20035;-76
2022/09/07 01:31:54;;;;;;;6.72;2.10;;;19.30;56.40;;;;;;4957812;28;20039;-76
2022/09/07 01:34:24;;;;;;;4.00;1.77;;;19.20;57.10;;;;;;4976917;28;20038;-76
2022/09/07 01:37:04;;;;;;;4.53;1.75;;;19.20;56.70;;;;;;4973311;28;20043;-75
2022/09/07 01:39:39;;;;;;;5.25;1.90;;;19.20;57.10;;;;;;4953204;28;20629;-75
2022/09/07 01:42:09;;;;;;;4.18;1.90;;;19.10;56.90;;;;;;4970333;28;20140;-75
2022/09/07 01:44:47;;;;;;;6.55;1.90;;;19.10;57.00;;;;;;4955706;28;20054;-76
2022/09/07 01:47:31;;;;;;;3.70;2.00;;;19.00;57.40;;;;;;4920603;28;20778;-77
2022/09/07 01:50:19;;;;;;;2.65;1.75;;;19.00;57.60;;;;;;4967580;28;21088;-76
2022/09/07 01:52:58;;;;;;;3.28;1.85;;;19.00;57.70;;;;;;4930526;28;20090;-76
2022/09/07 01:55:38;;;;;;;2.78;1.80;;;19.00;57.80;;;;;;4990837;28;20062;-75
2022/09/07 01:58:12;;;;;;;3.05;2.25;;;18.90;57.80;;;;;;4991764;28;20085;-77
2022/09/07 02:00:39;;;;;;;3.40;1.85;;;18.90;57.80;;;;;;4989608;28;20038;-77
2022/09/07 02:03:17;;;;;;;4.72;1.88;;;18.80;57.70;;;;;;4977463;28;20050;-75
2022/09/07 02:06:00;;;;;;;2.72;2.15;;;18.80;58.10;;;;;;4961741;28;20038;-76
2022/09/07 02:08:39;;;;;;;3.30;1.83;;;18.80;58.00;;;;;;4977126;28;20099;-76
2022/09/07 02:11:13;;;;;;;2.45;1.65;;;18.80;58.40;;;;;;4963248;28;20027;-76
2022/09/07 02:13:58;;;;;;;2.40;1.73;;;18.70;58.30;;;;;;4962802;28;20066;-77
2022/09/07 02:16:26;;;;;;;2.65;1.98;;;18.70;58.30;;;;;;4976835;28;20035;-77
2022/09/07 02:19:03;;;;;;;3.60;2.35;;;18.70;58.30;;;;;;4968113;28;20023;-76
2022/09/07 02:21:38;;;;;;;4.55;2.20;;;18.70;58.70;;;;;;4959147;28;20027;-77
2022/09/07 02:24:16;;;;;;;6.00;2.03;;;18.70;58.50;;;;;;4961265;28;20027;-76
2022/09/07 02:26:41;;;;;;;4.35;1.83;;;18.70;58.90;;;;;;4965530;28;20026;-77
2022/09/07 02:29:07;;;;;;;6.57;2.10;;;18.70;58.60;;;;;;4989504;28;20106;-76
2022/09/07 02:31:32;;;;;;;3.55;1.70;;;18.70;58.80;;;;;;4975148;28;20097;-77
2022/09/07 02:34:00;;;;;;;2.38;2.17;;;18.70;58.80;;;;;;4990788;28;20042;-77
2022/09/07 02:36:27;;;;;;;5.72;2.03;;;18.70;58.90;;;;;;4968574;28;20042;-78
2022/09/07 02:38:53;;;;;;;2.60;1.73;;;18.60;58.80;;;;;;4974936;28;20061;-77
2022/09/07 02:41:36;;;;;;;7.20;2.08;;;18.60;58.90;;;;;;4977607;28;20043;-76
2022/09/07 02:44:12;;;;;;;4.13;2.20;;;18.60;59.40;;;;;;4963817;28;20061;-77
2022/09/07 02:47:17;;;;;;;7.93;2.17;;;18.60;59.00;;;;;;4973786;28;20046;-76
2022/09/07 02:50:11;;;;;;;4.57;2.17;;;18.60;59.50;;;;;;4991842;28;20095;-76
2022/09/07 02:52:55;;;;;;;3.97;1.73;;;18.60;59.40;;;;;;4998566;28;20041;-76
2022/09/07 02:55:43;;;;;;;3.55;2.03;;;18.60;59.50;;;;;;4959971;28;20042;-76
2022/09/07 02:58:22;;;;;;;2.80;2.20;;;18.60;59.50;;;;;;4977664;28;20503;-76
2022/09/07 03:01:29;;;;;;;2.38;2.15;;;18.60;59.40;;;;;;4968841;28;20747;-76
2022/09/07 03:04:05;;;;;;;2.25;1.95;;;18.60;59.80;;;;;;4980777;28;20042;-76
2022/09/07 03:06:39;;;;;;;2.47;1.73;;;18.60;59.30;;;;;;4979017;28;20038;-76
2022/09/07 03:09:08;;;;;;;2.90;1.95;;;18.60;59.50;;;;;;4992393;28;20463;-76
2022/09/07 03:11:37;;;;;;;3.78;2.10;;;18.60;59.50;;;;;;4980329;28;20059;-76
2022/09/07 03:14:13;;;;;;;3.63;1.90;;;18.60;59.60;;;;;;4971892;28;20237;-77
2022/09/07 03:16:39;;;;;;;2.28;1.88;;;18.60;60.00;;;;;;4975426;28;20062;-76
2022/09/07 03:19:04;;;;;;;4.90;1.90;;;18.60;60.40;;;;;;4975688;28;20074;-76
2022/09/07 03:21:30;;;;;;;2.38;1.77;;;18.50;59.80;;;;;;4973636;28;20070;-76
2022/09/07 03:23:56;;;;;;;4.82;2.00;;;18.50;59.80;;;;;;4957010;28;20068;-75
2022/09/07 03:26:23;;;;;;;4.38;2.10;;;18.50;59.80;;;;;;4972386;28;20053;-76
2022/09/07 03:28:48;;;;;;;4.43;2.30;;;18.50;60.00;;;;;;4968200;28;20039;-77
2022/09/07 03:31:14;;;;;;;4.38;2.17;;;18.50;60.20;;;;;;4972462;28;20042;-75
2022/09/07 03:33:39;;;;;;;2.65;2.00;;;18.50;60.30;;;;;;4974924;28;20043;-75
2022/09/07 03:36:05;;;;;;;6.50;2.63;;;18.50;60.60;;;;;;4973325;28;20035;-75
2022/09/07 03:38:31;;;;;;;4.97;2.10;;;18.50;60.80;;;;;;4973245;28;20031;-74
2022/09/07 03:41:00;;;;;;;2.92;2.10;;;18.50;61.20;;;;;;4975298;28;20038;-77
2022/09/07 03:43:26;;;;;;;2.72;2.10;;;18.50;61.30;;;;;;4958859;28;20046;-76
2022/09/07 03:45:58;;;;;;;5.40;2.17;;;18.50;61.30;;;;;;5003772;28;20034;-76
2022/09/07 03:48:24;;;;;;;4.60;2.00;;;18.50;61.70;;;;;;4967012;28;20058;-76
2022/09/07 03:50:59;;;;;;;6.80;2.95;;;18.50;61.80;;;;;;5002561;28;20034;-75
2022/09/07 03:53:25;;;;;;;3.42;2.28;;;18.50;62.60;;;;;;5004276;28;20037;-76
2022/09/07 03:56:02;;;;;;;4.30;2.40;;;18.50;62.30;;;;;;5003135;28;20118;-75
2022/09/07 03:58:28;;;;;;;3.95;2.33;;;18.50;63.00;;;;;;4987248;28;20145;-76
2022/09/07 04:00:53;;;;;;;4.85;2.25;;;18.50;62.60;;;;;;4998126;28;20065;-76
2022/09/07 04:03:19;;;;;;;4.45;2.53;;;18.50;62.80;;;;;;4980987;28;20686;-75
2022/09/07 04:05:44;;;;;;;5.82;2.22;;;18.50;63.00;;;;;;4968326;28;20036;-76
2022/09/07 04:08:10;;;;;;;4.78;2.30;;;18.50;63.20;;;;;;4979914;28;20041;-75
2022/09/07 04:10:37;;;;;;;2.50;2.13;;;18.50;63.30;;;;;;4998147;28;20034;-75
2022/09/07 04:13:03;;;;;;;2.78;1.92;;;18.50;63.40;;;;;;4979002;28;20038;-75
2022/09/07 04:15:28;;;;;;;5.55;2.75;;;18.50;63.70;;;;;;4978054;28;20127;-76
2022/09/07 04:17:54;;;;;;;5.28;3.22;;;18.50;63.80;;;;;;4980760;28;20038;-75
2022/09/07 04:20:19;;;;;;;3.92;2.60;;;18.50;63.90;;;;;;4986437;28;20030;-75
2022/09/07 04:22:47;;;;;;;2.80;2.40;;;18.50;64.00;;;;;;4988146;28;20034;-75
2022/09/07 04:25:12;;;;;;;6.90;2.60;;;18.50;64.30;;;;;;4986517;28;20127;-74
2022/09/07 04:27:38;;;;;;;3.55;2.67;;;18.50;64.40;;;;;;4976033;28;20438;-74
2022/09/07 04:30:04;;;;;;;5.40;2.92;;;18.50;64.50;;;;;;4973456;28;20048;-75
2022/09/07 04:32:29;;;;;;;6.47;3.28;;;18.50;64.60;;;;;;4992249;28;20046;-74
2022/09/07 04:34:55;;;;;;;5.53;3.33;;;18.50;64.70;;;;;;4994509;28;20127;-74
2022/09/07 04:37:21;;;;;;;4.10;2.95;;;18.50;64.80;;;;;;4992874;28;20661;-75
2022/09/07 04:39:46;;;;;;;4.38;3.60;;;18.50;64.80;;;;;;4963733;28;20038;-74
2022/09/07 04:42:12;;;;;;;5.32;3.58;;;18.50;65.10;;;;;;4973501;28;20522;-74
2022/09/07 04:44:37;;;;;;;4.68;3.38;;;18.50;65.20;;;;;;4994181;28;20108;-74
2022/09/07 04:47:03;;;;;;;7.32;3.15;;;18.50;65.30;;;;;;4977303;28;20460;-75
2022/09/07 04:49:28;;;;;;;4.65;3.00;;;18.50;65.50;;;;;;4965695;28;20038;-75
2022/09/07 04:51:54;;;;;;;6.45;3.40;;;18.50;65.60;;;;;;4977793;28;20038;-75
2022/09/07 04:54:19;;;;;;;4.22;2.88;;;18.40;65.60;;;;;;4994160;28;20106;-75
2022/09/07 04:56:45;;;;;;;9.13;2.40;;;18.50;65.80;;;;;;4984884;28;20088;-75
2022/09/07 04:59:10;;;;;;;4.00;2.50;;;18.40;65.90;;;;;;4999340;28;20034;-75
2022/09/07 05:01:36;;;;;;;6.70;2.63;;;18.40;66.00;;;;;;5000098;28;20026;-75
2022/09/07 05:04:02;;;;;;;3.80;2.50;;;18.40;66.00;;;;;;4986966;28;20102;-75
2022/09/07 05:06:27;;;;;;;5.05;2.70;;;18.40;66.20;;;;;;4970218;28;20034;-75
2022/09/07 05:08:53;;;;;;;3.17;2.50;;;18.40;66.30;;;;;;5001603;28;20031;-77
2022/09/07 05:11:19;;;;;;;11.40;3.78;;;18.40;66.40;;;;;;4998614;28;20090;-75
2022/09/07 05:13:45;;;;;;;6.00;2.90;;;18.40;66.70;;;;;;4979909;28;20038;-75
2022/09/07 05:16:12;;;;;;;6.20;2.88;;;18.40;66.90;;;;;;4998037;28;20102;-75
2022/09/07 05:18:37;;;;;;;3.78;2.90;;;18.40;67.20;;;;;;4996031;28;20049;-75
2022/09/07 05:21:11;;;;;;;8.07;3.45;;;18.40;67.20;;;;;;4978566;28;20035;-75
2022/09/07 05:23:36;;;;;;;5.90;2.80;;;18.30;67.60;;;;;;4979569;28;20056;-76
2022/09/07 05:26:03;;;;;;;5.78;3.17;;;18.30;67.60;;;;;;4978119;28;20566;-75
2022/09/07 05:28:28;;;;;;;4.47;2.97;;;18.30;67.80;;;;;;4980257;28;20030;-75
2022/09/07 05:30:54;;;;;;;4.60;2.28;;;18.30;68.00;;;;;;4995680;28;20573;-75
2022/09/07 05:33:20;;;;;;;3.97;2.90;;;18.30;68.20;;;;;;5000299;28;20073;-75
2022/09/07 05:35:56;;;;;;;5.13;2.97;;;18.30;68.20;;;;;;4997171;28;20033;-75
2022/09/07 05:38:21;;;;;;;9.98;2.88;;;18.30;68.80;;;;;;4999566;28;20090;-75
2022/09/07 05:40:47;;;;;;;5.90;3.20;;;18.30;68.50;;;;;;4979652;28;20045;-75
2022/09/07 05:43:12;;;;;;;6.90;2.45;;;18.30;68.80;;;;;;4980306;28;20362;-76
2022/09/07 05:45:38;;;;;;;3.97;2.60;;;18.30;69.10;;;;;;5007516;28;20050;-75
2022/09/07 05:48:03;;;;;;;4.18;2.58;;;18.30;69.20;;;;;;4989021;28;20041;-76
2022/09/07 05:50:29;;;;;;;4.95;3.15;;;18.30;69.20;;;;;;4982398;28;20034;-75
2022/09/07 05:52:54;;;;;;;5.28;3.15;;;18.30;69.20;;;;;;4987418;28;20081;-75
2022/09/07 05:55:20;;;;;;;3.72;2.15;;;18.30;69.30;;;;;;4986051;28;20057;-77
2022/09/07 05:57:45;;;;;;;4.18;2.92;;;18.40;69.20;;;;;;4975610;28;20177;-77
2022/09/07 06:00:13;;;;;;;3.35;2.60;;;18.40;69.20;;;;;;4944191;28;20033;-77
2022/09/07 06:02:39;;;;;;;5.95;2.58;;;18.40;69.30;;;;;;4945227;28;20046;-76
2022/09/07 06:05:05;;;;;;;10.02;3.17;;;18.40;69.40;;;;;;4977451;28;20113;-75
2022/09/07 06:07:31;;;;;;;5.30;2.30;;;18.40;69.30;;;;;;4985185;28;20045;-76
2022/09/07 06:09:56;;;;;;;3.58;2.80;;;18.50;69.60;;;;;;4989756;28;20097;-75
2022/09/07 06:12:22;;;;;;;5.80;2.85;;;18.50;69.50;;;;;;4971590;28;20038;-71
2022/09/07 06:14:47;;;;;;;5.60;3.13;;;18.50;69.60;;;;;;4953581;28;20029;-72
2022/09/07 06:17:13;;;;;;;3.38;2.55;;;18.60;69.80;;;;;;4989032;28;20500;-72
2022/09/07 06:19:38;;;;;;;3.13;2.83;;;18.60;69.90;;;;;;4977529;28;20148;-72
2022/09/07 06:22:04;;;;;;;5.50;2.38;;;18.60;69.90;;;;;;4948911;28;20671;-71
2022/09/07 06:24:29;;;;;;;4.88;2.53;;;18.70;69.90;;;;;;4964472;28;20038;-72
2022/09/07 06:26:55;;;;;;;3.90;2.47;;;18.70;69.90;;;;;;4981397;28;20512;-70
2022/09/07 06:29:20;;;;;;;3.92;3.05;;;18.80;69.80;;;;;;4964957;28;20049;-72
2022/09/07 06:31:46;;;;;;;5.22;2.90;;;18.80;69.80;;;;;;4965735;28;20730;-72
2022/09/07 06:34:11;;;;;;;4.15;3.10;;;18.80;70.10;;;;;;4982772;28;20038;-71
2022/09/07 06:36:37;;;;;;;5.70;2.92;;;18.90;70.10;;;;;;4978671;28;20046;-72
2022/09/07 06:39:02;;;;;;;4.63;2.78;;;19.00;70.30;;;;;;4964717;28;20096;-74
2022/09/07 06:41:29;;;;;;;6.30;3.45;;;19.10;70.40;;;;;;4980936;28;20450;-72
2022/09/07 06:43:55;;;;;;;7.55;2.97;;;19.20;70.50;;;;;;4951083;28;20046;-71
2022/09/07 06:46:20;;;;;;;4.70;3.17;;;19.30;70.60;;;;;;4984158;28;20125;-74
2022/09/07 06:48:46;;;;;;;4.93;2.53;;;19.30;70.50;;;;;;4966902;28;20124;-72
2022/09/07 06:51:17;;;;;;;5.05;3.03;;;19.40;70.70;;;;;;4948619;28;20482;-72
2022/09/07 06:53:43;;;;;;;;;;;19.50;70.80;;;;;;4956609;28;20050;-73
2022/09/07 06:56:10;;;;;;;3.88;3.25;;;19.50;70.30;;;;;;4962924;28;20410;-72
2022/09/07 06:58:36;;;;;;;5.22;3.75;;;19.60;70.20;;;;;;4955942;28;20406;-73
2022/09/07 07:01:12;;;;;;;7.22;3.55;;;19.70;70.30;;;;;;4959677;28;20034;-72
2022/09/07 07:03:38;;;;;;;5.93;3.63;;;19.70;70.90;;;;;;4943675;28;20069;-72
2022/09/07 07:06:03;;;;;;;7.40;3.92;;;19.80;70.50;;;;;;4950770;28;20479;-72
2022/09/07 07:08:29;;;;;;;4.85;3.05;;;19.80;70.40;;;;;;4954679;28;20033;-72
2022/09/07 07:10:55;;;;;;;5.03;3.78;;;19.90;70.60;;;;;;4963259;28;20078;-72
2022/09/07 07:13:20;;;;;;;6.00;3.47;;;20.00;70.50;;;;;;4925524;28;20531;-74
2022/09/07 07:15:46;;;;;;;5.32;3.40;;;20.00;70.50;;;;;;4947583;28;20118;-75
2022/09/07 07:18:11;;;;;;;6.20;2.92;;;20.10;70.40;;;;;;4958853;28;20068;-74
2022/09/07 07:20:38;;;;;;;7.25;3.40;;;20.20;70.40;;;;;;4965826;28;20034;-73
2022/09/07 07:23:03;;;;;;;4.32;3.63;;;20.30;70.60;;;;;;4939914;28;20105;-74
2022/09/07 07:25:29;;;;;;;7.45;3.30;;;20.40;70.50;;;;;;4978536;28;20033;-75
2022/09/07 07:27:54;;;;;;;4.15;3.05;;;20.50;70.40;;;;;;4964554;28;20636;-73
2022/09/07 07:30:20;;;;;;;4.75;3.10;;;20.60;70.20;;;;;;4941318;28;20108;-73
2022/09/07 07:32:46;;;;;;;5.03;3.40;;;20.70;70.00;;;;;;4950407;28;20143;-73
2022/09/07 07:35:12;;;;;;;4.70;3.33;;;20.90;70.00;;;;;;4946814;28;20029;-72
2022/09/07 07:37:37;;;;;;;8.27;3.15;;;21.00;69.60;;;;;;4936255;28;20034;-73
2022/09/07 07:40:08;;;;;;;5.05;3.05;;;21.20;69.50;;;;;;4961550;28;20042;-73
2022/09/07 07:42:34;;;;;;;6.38;2.65;;;21.40;69.50;;;;;;4950920;28;20088;-73
2022/09/07 07:45:00;;;;;;;5.53;2.75;;;21.50;69.00;;;;;;4985634;28;20080;-73
2022/09/07 07:47:26;;;;;;;4.13;2.75;;;21.70;68.70;;;;;;4947674;28;20039;-73
2022/09/07 07:49:52;;;;;;;5.72;2.95;;;21.80;68.40;;;;;;4981812;28;20049;-73
2022/09/07 07:52:17;;;;;;;4.55;2.78;;;21.90;68.20;;;;;;4963296;28;20153;-72
2022/09/07 07:54:44;;;;;;;5.07;2.80;;;22.10;67.80;;;;;;4969539;28;20066;-73
2022/09/07 07:57:09;;;;;;;6.25;3.28;;;22.30;67.50;;;;;;4968382;28;20042;-73
2022/09/07 07:59:35;;;;;;;4.43;2.40;;;22.40;67.20;;;;;;4958011;28;20406;-73
2022/09/07 08:02:03;;;;;;;4.93;2.53;;;22.60;66.90;;;;;;4966921;28;20096;-73
2022/09/07 08:04:30;;;;;;;4.00;2.15;;;22.80;66.50;;;;;;4975025;28;20034;-73
2022/09/07 08:06:56;;;;;;;3.90;2.40;;;23.00;66.10;;;;;;4969779;28;20114;-75
2022/09/07 08:09:21;;;;;;;5.38;2.40;;;23.20;65.70;;;;;;4975007;28;20122;-73
2022/09/07 08:11:47;;;;;;;5.07;2.63;;;23.40;65.40;;;;;;4960918;28;20058;-73
2022/09/07 08:14:12;;;;;;;4.22;1.95;;;23.60;65.00;;;;;;4970563;28;20044;-73
2022/09/07 08:16:40;;;;;;;8.40;2.03;;;23.70;64.50;;;;;;4967762;28;20130;-74
2022/09/07 08:19:06;;;;;;;7.20;2.30;;;23.90;64.00;;;;;;4962488;28;20267;-73
2022/09/07 08:21:31;;;;;;;3.42;1.75;;;24.10;63.50;;;;;;4949119;28;20031;-73
2022/09/07 08:23:58;;;;;;;5.00;1.70;;;24.30;63.10;;;;;;4961533;28;20499;-72
2022/09/07 08:26:24;;;;;;;5.28;1.77;;;24.40;62.70;;;;;;4952958;28;20531;-73
2022/09/07 08:28:50;;;;;;;2.38;1.67;;;24.60;62.20;;;;;;4964291;28;20045;-73
2022/09/07 08:31:15;;;;;;;12.93;1.85;;;24.80;61.70;;;;;;4947314;28;20039;-73
2022/09/07 08:33:41;;;;;;;4.75;1.63;;;25.00;61.00;;;;;;4964035;28;20062;-73
2022/09/07 08:36:09;;;;;;;2.10;1.33;;;25.10;60.60;;;;;;4942794;28;20042;-72
2022/09/07 08:38:35;;;;;;;5.55;2.08;;;25.20;60.00;;;;;;4962823;28;20030;-72
2022/09/07 08:41:01;;;;;;;2.45;1.42;;;25.40;59.70;;;;;;4979998;28;20089;-71
2022/09/07 08:43:51;;;;;;;3.25;1.65;;;25.40;59.30;;;;;;4953979;28;20047;-71
2022/09/07 08:46:32;;;;;;;5.10;1.40;;;25.60;59.10;;;;;;4973791;28;20042;-71
2022/09/07 08:48:58;;;;;;;6.63;1.90;;;25.70;58.70;;;;;;4982084;28;20038;-71
2022/09/07 08:51:46;;;;;;;4.25;1.60;;;25.90;58.60;;;;;;4967844;28;20045;-71
2022/09/07 08:54:12;;;;;;;2.58;1.40;;;26.10;58.00;;;;;;4968311;28;20025;-71
2022/09/07 08:56:40;;;;;;;3.00;1.60;;;26.20;57.90;;;;;;4970587;28;20049;-72
2022/09/07 08:59:14;;;;;;;4.15;1.65;;;26.40;57.50;;;;;;4966672;28;20045;-72
2022/09/07 09:01:41;;;;;;;3.13;1.63;;;26.40;56.90;;;;;;4959435;28;20042;-71
2022/09/07 09:04:32;;;;;;;2.75;1.50;;;26.50;56.70;;;;;;4933070;28;20123;-72
2022/09/07 09:07:08;;;;;;;6.78;1.52;;;26.70;56.40;;;;;;4977716;28;20034;-71
2022/09/07 09:10:07;;;;;;;4.82;1.75;;;26.80;56.30;;;;;;4946290;28;20344;-73
2022/09/07 09:12:57;;;;;;;4.05;1.45;;;27.00;55.70;;;;;;4983092;28;20038;-73
2022/09/07 09:15:29;;;;;;;5.55;1.70;;;27.20;55.60;;;;;;4961784;28;20092;-74
2022/09/07 09:18:22;;;;;;;4.70;1.50;;;27.40;55.40;;;;;;4987854;28;20039;-73
2022/09/07 09:20:57;;;;;;;3.20;1.42;;;27.60;54.90;;;;;;4979390;28;20053;-75
2022/09/07 09:23:36;;;;;;;5.20;1.92;;;27.80;54.80;;;;;;4978451;28;20054;-72
2022/09/07 09:26:19;;;;;;;4.13;2.00;;;27.90;54.50;;;;;;4981392;28;20042;-71
2022/09/07 09:28:44;;;;;;;4.68;1.65;;;28.00;54.00;;;;;;4978098;28;20157;-72
2022/09/07 09:31:16;;;;;;;4.70;1.60;;;28.00;54.00;;;;;;4961585;28;20128;-72
2022/09/07 09:33:41;;;;;;;;;;;28.10;53.80;;;;;;4967604;28;20030;-74
2022/09/07 09:36:21;;;;;;;3.45;1.38;;;28.20;53.80;;;;;;4977797;28;19918;-72
2022/09/07 09:38:46;;;;;;;4.15;1.30;;;28.30;53.80;;;;;;4981511;28;20038;-72
2022/09/07 09:41:12;;;;;;;3.72;1.85;;;28.40;53.50;;;;;;4969967;28;20102;-71
2022/09/07 09:43:51;;;;;;;4.15;1.55;;;28.50;53.40;;;;;;4968531;28;23201;-73
2022/09/07 09:46:32;;;;;;;3.95;1.40;;;28.50;53.10;;;;;;4984536;28;20035;-73
2022/09/07 09:49:16;;;;;;;3.80;1.50;;;28.60;52.90;;;;;;4974770;28;20035;-73
2022/09/07 09:51:48;;;;;;;3.63;1.13;;;28.70;52.70;;;;;;4972661;28;20073;-72
2022/09/07 09:54:27;;;;;;;3.20;1.42;;;28.80;52.60;;;;;;4966831;28;20868;-73
2022/09/07 09:56:52;;;;;;;4.45;1.30;;;28.90;52.10;;;;;;4984367;28;20030;-73
2022/09/07 09:59:19;;;;;;;4.28;1.50;;;28.90;52.20;;;;;;4968502;28;20038;-70
2022/09/07 10:01:45;;;;;;;5.13;1.60;;;29.00;52.00;;;;;;4971211;28;20096;-71
2022/09/07 10:04:24;;;;;;;5.00;1.58;;;29.00;51.90;;;;;;4982190;28;20037;-71
2022/09/07 10:06:53;;;;;;;3.20;1.30;;;29.10;51.60;;;;;;4969890;28;20030;-70
2022/09/07 10:09:31;;;;;;;3.03;1.70;;;29.10;51.60;;;;;;4979812;28;20046;-73
2022/09/07 10:11:58;;;;;;;3.22;1.73;;;29.30;51.50;;;;;;4967493;28;20489;-72
2022/09/07 10:14:27;;;;;;;3.35;1.45;;;29.40;51.40;;;;;;4944956;28;20043;-72
2022/09/07 10:16:52;;;;;;;2.38;1.15;;;29.50;51.10;;;;;;4965368;28;20034;-73
2022/09/07 10:19:35;;;;;;;3.50;1.38;;;29.50;50.80;;;;;;4976837;28;20149;-75
2022/09/07 10:22:31;;;;;;;5.65;1.65;;;29.60;50.50;;;;;;4980594;28;20038;-71
2022/09/07 10:24:57;;;;;;;3.22;1.65;;;29.70;50.30;;;;;;4955875;28;20039;-73
2022/09/07 10:27:31;;;;;;;2.80;1.15;;;29.80;50.50;;;;;;4979803;28;20034;-73
2022/09/07 10:29:57;;;;;;;5.45;1.75;;;30.00;50.30;;;;;;4965748;28;20038;-72
2022/09/07 10:32:37;;;;;;;5.47;1.52;;;30.10;50.10;;;;;;4980963;28;20043;-73
2022/09/07 10:35:15;;;;;;;3.15;1.30;;;30.30;49.30;;;;;;4985364;28;20038;-73
2022/09/07 10:38:10;;;;;;;3.70;0.90;;;30.40;49.30;;;;;;4982662;28;20507;-72
2022/09/07 10:40:45;;;;;;;2.50;1.00;;;30.60;48.80;;;;;;4962201;28;20531;-75
2022/09/07 10:43:38;;;;;;;3.47;1.10;;;30.70;48.50;;;;;;4944147;28;21892;-73
2022/09/07 10:46:09;;;;;;;2.67;1.02;;;30.80;47.90;;;;;;4967506;28;20108;-72
2022/09/07 10:48:44;;;;;;;3.20;0.73;;;31.00;47.90;;;;;;4983474;28;20046;-74
2022/09/07 10:51:18;;;;;;;2.17;1.10;;;31.10;47.40;;;;;;4978995;28;20042;-74
2022/09/07 10:54:01;;;;;;;4.72;1.40;;;31.10;47.30;;;;;;4963994;28;20035;-74
2022/09/07 10:56:46;;;;;;;2.58;0.98;;;31.20;47.10;;;;;;4962732;28;20035;-73
2022/09/07 10:59:34;;;;;;;2.13;1.02;;;31.30;46.90;;;;;;4965741;28;20045;-73
2022/09/07 11:02:02;;;;;;;4.38;1.10;;;31.40;46.30;;;;;;4963194;28;20510;-72
2022/09/07 11:04:33;;;;;;;2.42;1.08;;;31.50;46.40;;;;;;4984967;28;20038;-75
2022/09/07 11:07:37;;;;;;;7.55;1.00;;;31.60;45.90;;;;;;4985014;28;20041;-71
2022/09/07 11:10:15;;;;;;;13.95;1.27;;;31.70;45.70;;;;;;4964841;28;20111;-71
2022/09/07 11:12:40;;;;;;;10.25;1.80;;;31.90;45.60;;;;;;5001856;28;20037;-73
2022/09/07 11:15:11;;;;;;;3.60;0.88;;;32.10;45.70;;;;;;4970490;28;20588;-74
2022/09/07 11:17:58;;;;;;;6.85;1.55;;;32.20;45.20;;;;;;5004671;28;20069;-74
2022/09/07 11:20:24;;;;;;;3.45;0.93;;;32.50;44.50;;;;;;4989262;28;20038;-74
2022/09/07 11:22:53;;;;;;;2.58;1.15;;;32.70;44.70;;;;;;4988868;28;20064;-75
2022/09/07 11:25:54;;;;;;;1.75;1.10;;;32.80;44.30;;;;;;4958033;28;20046;-75
2022/09/07 11:28:43;;;;;;;2.95;1.02;;;33.00;43.20;;;;;;4986346;28;20038;-75
2022/09/07 11:31:21;;;;;;;3.72;1.20;;;33.00;43.30;;;;;;4994191;28;20047;-75
2022/09/07 11:34:04;;;;;;;2.50;1.08;;;33.10;42.90;;;;;;4968578;28;20046;-75
2022/09/07 11:36:32;;;;;;;3.97;1.13;;;33.30;43.20;;;;;;4993757;28;20092;-74
2022/09/07 11:39:00;;;;;;;4.07;0.88;;;33.50;42.80;;;;;;4951299;28;20051;-73
2022/09/07 11:41:39;;;;;;;2.15;0.82;;;33.60;42.40;;;;;;4976810;28;20097;-75
2022/09/07 11:44:13;;;;;;;2.95;1.00;;;33.70;41.50;;;;;;4965067;28;20074;-73
2022/09/07 11:46:39;;;;;;;2.05;0.93;;;33.80;41.80;;;;;;4966785;28;21164;-74
2022/09/07 11:49:09;;;;;;;5.22;1.50;;;33.90;41.50;;;;;;4988640;28;20613;-74
2022/09/07 11:52:01;;;;;;;1.33;1.05;;;33.80;41.10;;;;;;4976345;28;20030;-75
2022/09/07 11:54:43;;;;;;;1.20;0.80;;;33.90;41.00;;;;;;4972910;28;20031;-75
2022/09/07 11:57:14;;;;;;;2.35;1.10;;;34.00;40.70;;;;;;4989204;28;20442;-75
2022/09/07 11:59:50;;;;;;;3.28;0.88;;;34.10;40.20;;;;;;4991545;28;20046;-75
2022/09/07 12:02:37;;;;;;;3.58;1.00;;;34.30;40.30;;;;;;4976171;28;20097;-75
2022/09/07 12:05:27;;;;;;;3.80;1.05;;;34.40;39.90;;;;;;4985037;28;20062;-75
2022/09/07 12:08:02;;;;;;;4.85;1.10;;;34.50;39.40;;;;;;4998493;28;20042;-75
2022/09/07 12:10:33;;;;;;;4.35;1.38;;;34.60;39.00;;;;;;4987579;28;20050;-75
2022/09/07 12:13:20;;;;;;;6.00;0.93;;;34.80;38.80;;;;;;4988906;28;20042;-75
2022/09/07 12:15:54;;;;;;;1.63;0.93;;;34.90;38.10;;;;;;4986032;28;20041;-76
2022/09/07 12:18:42;;;;;;;1.65;0.90;;;34.90;38.50;;;;;;4967584;28;20049;-75
2022/09/07 12:21:42;;;;;;;2.67;1.25;;;35.10;37.90;;;;;;4970830;28;20891;-76
2022/09/07 12:24:31;;;;;;;1.80;0.90;;;35.20;37.60;;;;;;4985878;28;20046;-76
2022/09/07 12:26:57;;;;;;;1.95;1.00;;;35.30;37.50;;;;;;4981742;28;20035;-76
2022/09/07 12:29:24;;;;;;;2.78;1.15;;;35.40;37.80;;;;;;4980045;28;20051;-75
2022/09/07 12:31:54;;;;;;;2.60;1.13;;;35.60;37.60;;;;;;4974244;28;20034;-76
2022/09/07 12:34:32;;;;;;;1.10;0.63;;;35.70;37.20;;;;;;4974080;28;20035;-75
2022/09/07 12:37:01;;;;;;;2.08;1.23;;;35.70;36.60;;;;;;4992685;28;20041;-76
2022/09/07 12:39:27;;;;;;;4.45;0.77;;;35.80;37.00;;;;;;4967953;28;20065;-76
2022/09/07 12:42:05;;;;;;;1.77;0.77;;;35.70;36.70;;;;;;4967799;28;20034;-75
2022/09/07 12:44:34;;;;;;;1.77;0.90;;;35.70;36.20;;;;;;4987986;28;20052;-75
2022/09/07 12:47:19;;;;;;;6.80;0.93;;;35.70;36.50;;;;;;4974272;28;20042;-76
2022/09/07 12:50:04;;;;;;;2.10;0.80;;;35.70;36.40;;;;;;4973464;28;20515;-75
2022/09/07 12:52:44;;;;;;;2.30;0.88;;;35.60;36.10;;;;;;4986283;28;20038;-75
2022/09/07 12:55:46;;;;;;;3.15;0.95;;;35.60;36.60;;;;;;4992772;28;20613;-75
2022/09/07 12:58:20;;;;;;;3.22;0.80;;;35.40;36.10;;;;;;4972252;28;20049;-76
2022/09/07 13:01:04;;;;;;;3.33;1.15;;;35.40;36.40;;;;;;4990467;28;20034;-76
2022/09/07 13:03:44;;;;;;;1.38;0.70;;;35.40;36.40;;;;;;4978626;28;20407;-76
2022/09/07 13:06:22;;;;;;;3.15;1.00;;;35.60;36.30;;;;;;5002914;28;20077;-76
2022/09/07 13:09:03;;;;;;;3.67;1.02;;;35.70;36.50;;;;;;4976973;28;20038;-76
2022/09/07 13:11:35;;;;;;;1.85;0.80;;;35.70;36.20;;;;;;4988083;28;20041;-73